To NAV CANADA Home Page Login to a new session Search on AWWS site Disclaimer Vers la page française équivalente Tips FAQ What's new on the site To the Forecasts and Observations / NOTAM section To "File a Flight Plan" website Publications and other links Update of the User's profile FIC Telephone Numbers My Weather Data Folder Route Weather Data Regional Weather Data Local Weather Data To the Forecasts and Observations / NOTAM section
Request Generated 10/19/2018 at 15:49:58 UTC . Weather information available at that time is displayed.

METAR/TAF

DAWSON CREEK/BC    (show WxCam)

METAR CYDQ 191500Z AUTO 16002KT 9SM BKN150 M01/M03 A3027 RMK SLP285=
METAR CYDQ 191400Z AUTO 00000KT 9SM BKN110 M02/M04 A3027 RMK SLP283=
METAR CYDQ 191300Z AUTO 23003KT 9SM CLR M03/M05 A3028 RMK SLP285=

TAF CYDQ 191238Z 1913/2001 VRB03KT P6SM BKN180
BECMG 1919/1921 16012KT
RMK FCST BASED ON AUTO OBS. NXT FCST BY 191900Z=
Your time UTC time
Weather data provided by Environment Canada and NAV CANADA